Andover, Iowa
Current Conditions -  °F | °C
As of 5:55 AM on Sunday 23 Nov 2014 (Local Time) from KSFY Reporting Station
Overcast Overcast  
Wind Chill: 11°   Ceiling: 1200
Heat Index: 11°   Visibility: 10mi
Dew Point:   Wind: 8mph
Humidity: 90%   Direction: 170°S
Pressure: 29.67"   Gusts: NA
Location:  41.98°N, 90.25°W
Report Text: KSFY 231155Z AUTO 17007KT 10SM BKN012 OVC017 11/09 A2967 RMK AO2 T01050090 10105 20092
Loading
Personal Weather Stations






























Interactive Weather Map New forecast layout! Learn more

10-Day Weather Forecast

Advertisements
Track Severe Weather on mobile